Bolsward, Netherlands
Current Conditions -  °F | °C
As of 10:55 AM on Thursday 23 Oct 2014 (Local Time) from EHLW Reporting Station
Haze Haze  
Wind Chill: 52°   Ceiling: 1800
Heat Index: 52°   Visibility: 4mi
Dew Point: 52°   Wind: 9mph
Humidity: 100%   Direction: 170°S
Pressure: 30.12"   Gusts: NA
Location:  53.07°N, 5.53°E
Report Text: EHLW 230855Z AUTO 17008KT 6000 BR BKN018 BKN022 BKN027 11/11 Q1020 WHT 20007KT 5000 BR FEW009 SCT018 OVC022
Loading
Personal Weather Stations






























Interactive Weather Map
Tropical Storm Tracking
New forecast layout! Learn more

10-Day Weather Forecast

Advertisements
Track Severe Weather on mobile